Latest Weather Observations for Katanning RS

IDW60801

Issued at 11:43 pm WST Friday 28 February 2020 (issued every 10 minutes, with the page automatically refreshed every 10 minutes)

About weather observations | Map of weather stations | Latest weather observations for WA | Other Formats
Station Details ID: 010916 Name: KATANNING Lat: -33.69 Lon: 117.61 Height: 320.0 m
Data from the previous 72 hours. | See also: Recent months at Katanning RS
Date/Time
WST
Temp
°C
App
Temp
°C
Dew
Point
°C
Rel
Hum
%
Delta-T
°C
Wind Press
QNH
hPa
Press
MSL
hPa
Rain since
9am
mm
Dir  Spd
km/h
Gust
km/h
Spd
kts
Gust
kts
28/11:30pm 20.5 17.3 15.3 72 3.1 NNE 26 35 14 19 1009.0 1007.6 4.4
28/11:00pm 20.6 17.5 15.6 73 3.0 NNE 26 35 14 19 1009.2 1007.7 4.4
28/10:30pm 20.5 18.4 16.1 76 2.7 NNE 22 32 12 17 1009.6 1008.2 4.4
28/10:00pm 20.5 19.1 16.5 78 2.5 NNE 19 30 10 16 1009.9 1008.5 4.4
28/09:30pm 20.6 19.0 16.6 78 2.5 NNE 20 28 11 15 1010.1 1008.7 4.4
28/09:00pm 20.8 19.3 16.8 78 2.5 NE 20 30 11 16 1010.3 1008.9 4.4
28/08:30pm 20.8 19.6 17.0 79 2.3 NNE 19 24 10 13 1010.2 1008.8 4.4
28/08:00pm 20.7 20.3 17.1 80 2.2 NE 15 24 8 13 1009.9 1008.5 4.4
28/07:30pm 20.9 20.2 17.3 80 2.2 NE 17 26 9 14 1009.4 1008.0 4.4
28/07:00pm 21.1 20.1 17.5 80 2.2 NE 19 28 10 15 1008.9 1007.5 4.4
28/06:30pm 21.3 20.2 17.7 80 2.3 NNE 20 28 11 15 1009.2 1007.7 4.4
28/06:00pm 21.3 19.8 17.7 80 2.3 NE 22 28 12 15 1008.8 1007.4 4.4
28/05:30pm 21.5 19.6 17.7 79 2.4 NNE 24 35 13 19 1009.5 1008.1 4.4
28/05:00pm 21.4 19.3 18.0 81 2.1 NNE 26 35 14 19 1009.2 1007.7 4.4
28/04:30pm 21.0 18.4 17.8 82 2.0 NE 28 41 15 22 1008.1 1006.7 4.2
28/04:00pm 21.7 19.6 18.1 80 2.3 NE 26 35 14 19 1009.3 1007.8 4.0
28/03:30pm 21.9 19.6 18.5 81 2.2 NE 28 35 15 19 1009.5 1008.1 4.0
28/03:00pm 22.3 19.3 18.7 80 2.3 NE 32 43 17 23 1009.5 1008.1 4.0
28/02:30pm 21.5 19.0 18.9 85 1.7 NNE 30 43 16 23 1010.7 1009.3 4.0
28/02:00pm 21.3 18.0 18.3 83 1.9 NNE 33 44 18 24 1011.4 1010.0 3.6
28/01:30pm 21.3 18.7 17.9 81 2.1 NNE 28 39 15 21 1011.6 1010.2 3.6
28/01:00pm 20.9 19.3 18.3 85 1.6 NNE 24 32 13 17 1012.5 1011.1 3.6
28/12:30pm 20.2 18.5 18.0 87 1.4 NNE 24 30 13 16 1012.1 1010.8 3.4
28/12:00pm 20.0 17.8 17.8 87 1.4 NNE 26 35 14 19 1012.8 1011.4 2.6
28/11:30am 19.9 16.5 17.7 87 1.4 NNE 32 44 17 24 1013.0 1011.6 2.2
28/11:00am 19.9 18.4 17.7 87 1.4 NNE 22 30 12 16 1012.8 1011.4 2.2
28/10:30am 20.1 20.1 17.3 84 1.7 NNE 13 19 7 10 1013.8 1012.4 1.8
28/10:00am 20.2 18.1 17.2 83 1.9 N 24 33 13 18 1014.1 1012.7 0.6
28/09:30am 20.5 17.2 17.1 81 2.1 NNE 30 41 16 22 1012.2 1010.9 0.0
28/09:00am 20.9 18.9 17.3 80 2.2 NNE 24 32 13 17 1012.6 1011.2 9.2
28/08:30am 21.4 20.3 18.6 84 1.8 NE 22 32 12 17 1011.3 1009.9 9.2
28/08:00am 20.2 19.5 17.4 84 1.7 ENE 17 22 9 12 1011.7 1010.3 9.2
28/07:30am 19.0 15.6 16.8 87 1.3 NE 30 41 16 22 1011.9 1010.5 9.2
28/07:21am 19.1 15.6 16.5 85 1.6 NE 30 39 16 21 1011.9 1010.5 9.0
28/07:00am 18.6 16.9 16.2 86 1.5 NNW 20 41 11 22 1014.0 1012.6 7.8
28/06:53am 17.9 17.1 15.2 84 1.6 W 13 17 7 9 1013.9 1012.5 2.6
28/06:30am 17.9 18.6 15.5 86 1.4 NE 6 9 3 5 1011.7 1010.3 2.6
28/06:00am 16.9 17.1 14.7 87 1.3 E 7 9 4 5 1011.2 1009.8 2.6
28/05:30am 16.6 16.7 14.4 87 1.3 NE 7 11 4 6 1011.7 1010.3 2.6
28/05:00am 16.4 16.4 14.2 87 1.3 ENE 7 11 4 6 1011.7 1010.3 2.6
28/04:30am 16.6 16.9 14.4 87 1.3 E 6 9 3 5 1012.1 1010.8 2.6
28/04:00am 16.8 17.0 14.6 87 1.3 ENE 7 11 4 6 1012.6 1011.2 2.6
28/03:30am 16.8 15.8 14.6 87 1.3 ENE 13 17 7 9 1012.0 1010.6 2.6
28/03:00am 17.4 17.3 15.0 86 1.4 E 9 15 5 8 1012.7 1011.3 2.6
28/02:30am 17.8 18.4 15.4 86 1.4 SSE 6 9 3 5 1013.9 1012.5 2.6
28/02:00am 17.8 16.3 15.4 86 1.4 ENE 17 20 9 11 1013.1 1011.7 2.6
28/01:30am 17.7 17.3 15.3 86 1.4 E 11 17 6 9 1013.5 1012.1 2.6
28/01:00am 17.9 17.2 15.5 86 1.4 ENE 13 19 7 10 1013.7 1012.3 2.6
28/12:30am 17.9 17.6 15.5 86 1.4 ESE 11 15 6 8 1013.5 1012.1 2.6
28/12:00am 18.0 18.6 15.4 85 1.5 SE 6 9 3 5 1014.7 1013.3 2.6
 
Date/Time
WST
Temp
°C
App
Temp
°C
Dew
Point
°C
Rel
Hum
%
Delta-T
°C
Wind Press
QNH
hPa
Press
MSL
hPa
Rain since
9am
mm
Dir  Spd
km/h
Gust
km/h
Spd
kts
Gust
kts
27/11:30pm 18.0 17.7 15.4 85 1.5 ESE 11 17 6 9 1014.7 1013.3 2.6
27/11:00pm 18.1 15.8 15.7 86 1.4 ENE 22 32 12 17 1013.2 1011.8 2.6
27/10:30pm 18.2 18.0 15.6 85 1.6 ESE 11 22 6 12 1014.2 1012.8 2.6
27/10:00pm 18.2 17.7 15.8 86 1.4 ESE 13 19 7 10 1014.9 1013.6 2.6
27/09:30pm 18.1 17.5 15.7 86 1.4 E 13 20 7 11 1014.6 1013.2 2.4
27/09:00pm 18.2 18.7 15.6 85 1.6 SE 7 9 4 5 1016.1 1014.7 2.4
27/08:30pm 18.6 18.9 16.0 85 1.6 SSE 9 17 5 9 1015.5 1014.2 2.4
27/08:00pm 18.5 17.3 16.1 86 1.4 ENE 17 26 9 14 1013.8 1012.4 2.4
27/07:30pm 18.4 16.3 16.2 87 1.3 ENE 22 35 12 19 1014.1 1012.7 2.4
27/07:17pm 18.6 16.9 16.2 86 1.5 ENE 20 35 11 19 1013.8 1012.4 2.4
27/07:00pm 18.7 18.3 16.1 85 1.6 NNE 13 30 7 16 1015.2 1013.9 2.2
27/06:30pm 18.7 15.4 16.1 85 1.6 NE 28 39 15 21 1014.2 1012.8 2.2
27/06:18pm 18.9 17.1 16.1 84 1.7 NE 20 33 11 18 1014.0 1012.6 2.2
27/06:00pm 19.1 19.6 16.5 85 1.6 NE 9 15 5 8 1016.3 1014.9 2.2
27/05:30pm 19.0 18.6 16.2 84 1.7 SE 13 17 7 9 1015.3 1014.0 2.2
27/05:00pm 19.0 19.4 16.2 84 1.7 ESE 9 15 5 8 1015.5 1014.2 2.2
27/04:30pm 18.8 17.6 16.0 84 1.7 ENE 17 28 9 15 1015.0 1013.7 2.2
27/04:00pm 18.7 16.1 15.9 84 1.7 ENE 24 33 13 18 1014.2 1012.8 2.2
27/03:30pm 18.5 15.4 15.6 83 1.7 ENE 26 35 14 19 1014.7 1013.3 2.2
27/03:00pm 18.7 16.2 15.2 80 2.1 NE 22 32 12 17 1016.2 1014.8 1.8
27/02:30pm 19.3 17.8 15.2 77 2.4 ENE 17 22 9 12 1017.2 1015.8 0.8
27/02:00pm 20.1 18.7 14.5 70 3.3 ENE 15 20 8 11 1017.6 1016.3 0.0
27/01:30pm 20.6 18.2 13.8 65 4.0 NE 19 22 10 12 1018.0 1016.7 0.0
27/01:00pm 20.8 18.1 13.5 63 4.2 E 20 28 11 15 1017.7 1016.4 0.0
27/12:30pm 20.7 17.6 13.4 63 4.2 E 22 30 12 16 1017.6 1016.3 0.0
27/12:00pm 20.6 18.9 13.6 64 4.1 E 15 24 8 13 1018.6 1017.3 0.0
27/11:30am 20.3 18.4 14.2 68 3.6 ESE 17 24 9 13 1018.4 1017.1 0.0
27/11:00am 19.7 18.0 13.6 68 3.5 E 15 19 8 10 1019.3 1017.9 0.0
27/10:30am 19.6 18.3 13.8 69 3.4 E 13 22 7 12 1019.4 1018.0 0.0
27/10:00am 19.3 16.5 13.3 68 3.5 E 20 32 11 17 1018.3 1017.0 0.0
27/09:30am 19.1 16.5 13.3 69 3.3 E 19 26 10 14 1018.4 1017.1 0.0
27/09:00am 18.9 16.1 13.1 69 3.3 ENE 20 32 11 17 1018.3 1017.0 0.0
27/08:30am 18.5 14.9 13.1 71 3.1 E 24 32 13 17 1018.3 1017.0 0.0
27/08:00am 17.8 15.0 13.1 74 2.7 E 20 28 11 15 1018.3 1017.0 0.0
27/07:30am 17.6 14.4 13.1 75 2.6 E 22 32 12 17 1018.1 1016.8 0.0
27/07:00am 17.2 14.4 13.1 77 2.3 E 20 33 11 18 1017.3 1015.9 0.0
27/06:30am 16.9 13.7 13.0 78 2.2 E 22 32 12 17 1017.4 1016.0 0.0
27/06:00am 16.8 13.6 13.1 79 2.1 E 22 30 12 16 1017.6 1016.3 0.0
27/05:30am 16.8 12.8 13.1 79 2.1 ENE 26 39 14 21 1017.2 1015.8 0.0
27/05:00am 16.9 13.3 13.2 79 2.1 E 24 35 13 19 1017.7 1016.4 0.0
27/04:30am 16.9 13.5 13.6 81 1.9 E 24 37 13 20 1018.3 1017.0 0.0
27/04:00am 17.0 14.9 13.5 80 2.0 E 17 24 9 13 1019.1 1017.7 0.0
27/03:30am 16.9 14.2 13.4 80 2.0 E 20 26 11 14 1019.0 1017.6 0.0
27/03:00am 16.9 13.4 13.4 80 2.0 E 24 35 13 19 1018.8 1017.5 0.0
27/02:30am 16.9 13.8 13.4 80 2.0 ENE 22 35 12 19 1019.1 1017.7 0.0
27/02:00am 16.8 13.7 13.5 81 1.9 E 22 35 12 19 1018.6 1017.3 0.0
27/01:30am 16.9 13.7 13.2 79 2.1 ESE 22 35 12 19 1017.9 1016.6 0.0
27/01:00am 16.9 13.7 13.2 79 2.1 ESE 22 33 12 18 1018.2 1016.9 0.0
27/12:30am 16.8 14.0 13.1 79 2.1 ESE 20 30 11 16 1017.8 1016.5 0.0
27/12:00am 16.7 13.0 12.8 78 2.2 ESE 24 33 13 18 1017.2 1015.8 0.0
 
Date/Time
WST
Temp
°C
App
Temp
°C
Dew
Point
°C
Rel
Hum
%
Delta-T
°C
Wind Press
QNH
hPa
Press
MSL
hPa
Rain since
9am
mm
Dir  Spd
km/h
Gust
km/h
Spd
kts
Gust
kts
26/11:30pm 16.8 12.6 12.3 75 2.5 ESE 26 39 14 21 1017.4 1016.0 0.0
26/11:00pm 17.3 13.9 12.4 73 2.7 ESE 22 33 12 18 1018.1 1016.8 0.0
26/10:30pm 17.6 14.1 12.3 71 3.0 ESE 22 39 12 21 1018.6 1017.3 0.0
26/10:00pm 18.2 15.4 12.6 70 3.2 ESE 19 33 10 18 1019.5 1018.1 0.0
26/09:30pm 18.9 16.0 12.9 68 3.4 E 20 30 11 16 1019.4 1018.0 0.0
26/09:00pm 19.6 17.0 13.1 66 3.7 ESE 19 26 10 14 1019.5 1018.1 0.0
26/08:30pm 20.2 17.9 12.9 63 4.2 ESE 17 28 9 15 1019.7 1018.3 0.0
26/08:00pm 21.4 19.9 13.1 59 4.8 E 13 22 7 12 1019.6 1018.2 0.0
26/07:30pm 22.1 19.9 13.2 57 5.2 ESE 17 28 9 15 1018.7 1017.4 0.0
26/07:00pm 22.8 21.0 13.3 55 5.6 E 15 20 8 11 1019.0 1017.6 0.0
26/06:30pm 23.5 22.1 13.4 53 5.9 E 13 20 7 11 1019.3 1017.9 0.0
26/06:00pm 24.0 22.3 13.5 52 6.2 E 15 20 8 11 1019.2 1017.8 0.0
26/05:30pm 24.3 22.1 13.2 50 6.5 E 17 28 9 15 1018.3 1017.0 0.0
26/05:00pm 24.6 22.1 13.5 50 6.6 ENE 19 24 10 13 1018.7 1017.4 0.0
26/04:30pm 24.8 21.7 13.4 49 6.7 ENE 22 30 12 16 1018.5 1017.2 0.0
26/04:00pm 25.3 22.8 13.5 48 7.0 ENE 19 26 10 14 1018.5 1017.2 0.0
26/03:30pm 24.9 22.3 13.1 48 7.0 ENE 19 24 10 13 1018.6 1017.3 0.0
26/03:00pm 24.0 22.3 13.5 52 6.2 ENE 15 20 8 11 1019.4 1018.0 0.0
26/02:30pm 24.5 21.9 13.1 49 6.7 ENE 19 28 10 15 1018.8 1017.5 0.0
26/02:00pm 24.9 22.2 12.8 47 7.1 E 19 28 10 15 1018.8 1017.5 0.0
26/01:30pm 24.5 21.5 12.1 46 7.2 E 19 30 10 16 1018.8 1017.5 0.0
26/01:00pm 24.8 21.1 12.7 47 7.1 E 24 41 13 22 1018.5 1017.2 0.0
26/12:30pm 23.8 20.6 13.1 51 6.3 E 22 39 12 21 1018.5 1017.2 0.0
26/12:00pm 22.7 19.0 12.6 53 5.8 E 24 33 13 18 1018.8 1017.5 0.0
26/11:30am 21.6 17.1 12.7 57 5.1 E 28 41 15 22 1019.5 1018.1 0.0
26/11:00am 20.2 15.6 12.2 60 4.5 E 28 41 15 22 1019.8 1018.4 0.0
26/10:30am 19.2 14.7 12.7 66 3.7 E 28 41 15 22 1020.4 1019.1 0.0
26/10:00am 17.9 13.7 12.4 70 3.1 E 26 37 14 20 1020.5 1019.2 0.0
26/09:30am 17.1 13.2 12.2 73 2.7 E 24 35 13 19 1020.6 1019.3 0.0
26/09:00am 16.4 12.6 12.4 77 2.2 E 24 33 13 18 1020.7 1019.4 0.2
26/08:30am 16.2 12.4 12.4 78 2.1 E 24 33 13 18 1021.0 1019.7 0.2
26/08:00am 15.9 12.1 12.5 80 1.9 E 24 33 13 18 1020.9 1019.6 0.2
26/07:30am 15.4 12.5 12.3 82 1.7 E 19 32 10 17 1020.9 1019.6 0.2
26/07:00am 15.1 12.1 12.4 84 1.5 ESE 20 32 11 17 1020.8 1019.5 0.2
26/06:30am 15.0 11.9 12.3 84 1.5 ESE 20 28 11 15 1020.3 1018.9 0.2
26/06:00am 14.9 11.4 12.2 84 1.5 ESE 22 33 12 18 1019.9 1018.5 0.2
26/05:30am 15.0 11.5 12.3 84 1.5 ESE 22 33 12 18 1019.4 1018.0 0.2
26/05:00am 15.2 12.1 12.3 83 1.6 ESE 20 30 11 16 1019.3 1017.9 0.2
26/04:30am 14.9 11.9 12.6 86 1.3 ESE 20 30 11 16 1019.3 1017.9 0.2
26/04:00am 15.0 11.2 12.5 85 1.4 ESE 24 37 13 20 1019.2 1017.8 0.2
26/03:30am 15.0 11.6 12.5 85 1.4 ESE 22 32 12 17 1018.8 1017.5 0.2
26/03:00am 14.9 12.0 12.8 87 1.2 ESE 20 30 11 16 1018.8 1017.5 0.2
26/02:30am 14.9 12.0 12.8 87 1.2 ESE 20 32 11 17 1019.2 1017.8 0.2
26/02:00am 14.8 12.4 12.8 88 1.1 E 17 24 9 13 1019.8 1018.4 0.2
26/01:30am 14.8 12.4 12.8 88 1.1 ESE 17 26 9 14 1020.0 1018.6 0.2
26/01:00am 15.0 12.1 12.9 87 1.2 ESE 20 32 11 17 1020.2 1018.8 0.2
26/12:30am 15.5 12.5 12.6 83 1.6 ESE 20 35 11 19 1020.6 1019.3 0.2
26/12:00am 15.4 12.1 12.7 84 1.5 ESE 22 32 12 17 1020.1 1018.7 0.2

Other formats

Comma delimited format used in spreadsheet applications
http://www.bom.gov.au/fwo/IDW60801/IDW60801.94641.axf

JavaScript Object Notation format (JSON) in row-major order
http://www.bom.gov.au/fwo/IDW60801/IDW60801.94641.json

Data quality

Most of these data are generated automatically and are frequently updated. Quality checks on data are not normally performed. It is possible for incorrect values to appear. Refer to information at About Latest Weather Observations and please check the disclaimer before using these data.